Austin, Texas
Traffic Map
Current Weather Conditions
Austin, Texas
Clear
Clear

Feels Like: 7°
Wind Chill: Ceiling: Unl
Heat Index: Visibility: 10mi
Dew Point: Wind: 0mph
Humidity: 65% Direction: ° ()
Pressure: 30in Gusts: 0mph
Raw Report DataKATT 260851Z AUTO 00000KT 10SM CLR 07/01 A3000 RMK AO2 SLP161 T00670006 56021
Traffic Incident Summary
Active as of:
Severity:
Category:
InformationThere was an issue retrieving the traffic information for this location. Please try a different location or try again shortly.
Advertisements
Track Severe Weather on mobile